Terminal Aerodrome Forecast
Issued by NWS Cleveland, OH

Home | Current Version | Previous Version | Text Only | Print | Product List | Glossary Off
Versions: 1 2 3 4 5 6 7 8 9 10 11 12 13 14 15 16 17 18 19 20 21

000
FTUS41 KCLE 181639 AAA
TAFYNG
TAF AMD
KYNG 181639Z 1817/1912 27010KT 2SM -DZ BR OVC008
      TEMPO 1817/1820 4SM OVC010
     FM182000 27008KT P6SM OVC008
     FM182200 27008KT P6SM OVC010
     FM190100 24005KT P6SM OVC007=

USA.gov is the U.S. government's official web portal to all federal, state and local government web resources and services.